Time;durP1;ratioP1;P1;durP2;ratioP2;P2;SDS_P1;SDS_P2;PMS_P1;PMS_P2;Temp;Humidity;BMP_temperature;BMP_pressure;BME280_temperature;BME280_humidity;BME280_pressure;Samples;Min_cycle;Max_cycle;Signal;HPM_P1;HPM_P2
2021/07/19 00:02:19;;;;;;;12.50;8.52;;;16.40;99.90;;;;;;4963694;28;20142;-76
2021/07/19 00:04:47;;;;;;;10.98;9.32;;;16.30;99.90;;;;;;4948675;28;20137;-76
2021/07/19 00:07:14;;;;;;;15.68;9.35;;;16.30;99.90;;;;;;4965357;28;20150;-76
2021/07/19 00:09:44;;;;;;;16.50;10.77;;;16.20;99.90;;;;;;4951127;28;20149;-76
2021/07/19 00:12:15;;;;;;;13.45;9.75;;;16.10;99.90;;;;;;4931640;28;20074;-76
2021/07/19 00:14:45;;;;;;;15.52;10.98;;;16.10;99.90;;;;;;4940476;29;20047;-76
2021/07/19 00:17:12;;;;;;;15.07;10.43;;;15.90;99.90;;;;;;4928669;29;20058;-75
2021/07/19 00:19:39;;;;;;;19.05;11.10;;;15.80;99.90;;;;;;4929489;29;20146;-75
2021/07/19 00:22:07;;;;;;;17.80;11.18;;;15.80;99.90;;;;;;4928324;29;20130;-77
2021/07/19 00:24:34;;;;;;;16.02;11.75;;;15.70;99.90;;;;;;4938201;28;20043;-76
2021/07/19 00:27:01;;;;;;;16.88;11.70;;;15.70;99.90;;;;;;4965667;28;20097;-76
2021/07/19 00:29:29;;;;;;;15.88;11.32;;;15.60;99.90;;;;;;4952917;28;20101;-75
2021/07/19 00:31:56;;;;;;;19.23;10.63;;;15.60;99.90;;;;;;4950595;28;20051;-76
2021/07/19 00:34:23;;;;;;;19.65;11.88;;;15.60;99.90;;;;;;4954846;28;20073;-76
2021/07/19 00:36:54;;;;;;;16.02;11.35;;;15.50;99.90;;;;;;4950178;28;20051;-76
2021/07/19 00:39:22;;;;;;;17.48;11.43;;;15.30;99.90;;;;;;4933911;29;20043;-76
2021/07/19 00:41:49;;;;;;;16.90;10.15;;;15.40;99.90;;;;;;4947517;28;20074;-76
2021/07/19 00:44:19;;;;;;;18.50;11.38;;;15.30;99.90;;;;;;4948567;29;20055;-75
2021/07/19 00:46:54;;;;;;;19.67;11.38;;;15.20;99.90;;;;;;4935254;28;20090;-76
2021/07/19 00:49:23;;;;;;;16.73;11.38;;;15.20;99.90;;;;;;4942466;29;20051;-75
2021/07/19 00:51:54;;;;;;;17.40;11.18;;;15.00;99.90;;;;;;4931932;29;20039;-75
2021/07/19 00:54:24;;;;;;;20.10;11.88;;;15.00;99.90;;;;;;4931452;28;20427;-76
2021/07/19 00:56:55;;;;;;;17.75;11.18;;;15.00;99.90;;;;;;4947675;28;20049;-75
2021/07/19 00:59:24;;;;;;;16.88;11.65;;;15.00;99.90;;;;;;4951490;28;20446;-75
2021/07/19 01:01:54;;;;;;;16.77;11.27;;;14.90;99.90;;;;;;4966259;28;20072;-75
2021/07/19 01:04:25;;;;;;;16.90;11.80;;;14.80;99.90;;;;;;4967433;28;20058;-75
2021/07/19 01:06:58;;;;;;;17.80;12.88;;;14.90;99.90;;;;;;4948113;28;20541;-75
2021/07/19 01:09:28;;;;;;;21.10;12.68;;;14.80;99.90;;;;;;4943446;29;20080;-76
2021/07/19 01:12:00;;;;;;;17.63;12.75;;;14.70;99.90;;;;;;4932266;28;20110;-75
2021/07/19 01:14:30;;;;;;;17.73;12.02;;;14.80;99.90;;;;;;4949821;28;20047;-75
2021/07/19 01:16:57;;;;;;;19.05;12.05;;;14.70;99.90;;;;;;4951841;28;20542;-76
2021/07/19 01:19:30;;;;;;;19.20;12.13;;;14.60;99.90;;;;;;4932191;29;20047;-76
2021/07/19 01:22:39;;;;;;;17.27;12.23;;;14.60;99.90;;;;;;4930897;29;20300;-75
2021/07/19 01:25:18;;;;;;;18.23;12.60;;;14.60;99.90;;;;;;4861251;29;20044;-75
2021/07/19 01:28:03;;;;;;;20.42;11.82;;;14.50;99.90;;;;;;4951069;28;20050;-76
2021/07/19 01:30:32;;;;;;;20.55;12.02;;;14.40;99.90;;;;;;4966930;28;20071;-76
2021/07/19 01:33:01;;;;;;;17.77;12.10;;;14.30;99.90;;;;;;4941735;28;20054;-76
2021/07/19 01:35:34;;;;;;;22.65;12.60;;;14.20;99.90;;;;;;4946201;28;20634;-76
2021/07/19 01:38:02;;;;;;;23.38;12.88;;;14.10;99.90;;;;;;4947371;28;20074;-77
2021/07/19 01:40:36;;;;;;;23.48;12.60;;;14.00;99.90;;;;;;4930494;29;20057;-75
2021/07/19 01:43:06;;;;;;;19.13;12.43;;;13.90;99.90;;;;;;4937232;28;20422;-75
2021/07/19 01:45:34;;;;;;;20.70;11.88;;;13.90;99.90;;;;;;4948041;28;20156;-75
2021/07/19 01:48:03;;;;;;;25.08;12.32;;;13.90;99.90;;;;;;4947091;29;20543;-75
2021/07/19 01:50:34;;;;;;;20.30;12.95;;;13.80;99.90;;;;;;4931008;28;20142;-75
2021/07/19 01:53:16;;;;;;;21.00;12.35;;;13.80;99.90;;;;;;4931749;29;20058;-76
2021/07/19 01:55:45;;;;;;;24.20;12.85;;;13.80;99.90;;;;;;4946669;28;20500;-76
2021/07/19 01:58:13;;;;;;;18.55;12.32;;;13.80;99.90;;;;;;4968466;28;20043;-75
2021/07/19 02:00:51;;;;;;;20.27;12.50;;;13.80;99.90;;;;;;4935293;28;20054;-76
2021/07/19 02:03:20;;;;;;;21.63;12.27;;;13.80;99.90;;;;;;4950970;28;20138;-76
2021/07/19 02:05:54;;;;;;;21.20;12.75;;;13.80;99.90;;;;;;4964337;28;20575;-76
2021/07/19 02:08:23;;;;;;;22.33;13.02;;;13.80;99.90;;;;;;4968224;28;20648;-76
2021/07/19 02:11:08;;;;;;;21.63;11.97;;;13.70;99.90;;;;;;4949466;28;20073;-75
2021/07/19 02:13:41;;;;;;;23.08;12.73;;;13.60;99.90;;;;;;4964599;28;20303;-75
2021/07/19 02:16:10;;;;;;;22.45;13.30;;;13.50;99.90;;;;;;4932311;28;20054;-74
2021/07/19 02:18:41;;;;;;;19.85;12.02;;;13.50;99.90;;;;;;4916734;29;20058;-75
2021/07/19 02:21:10;;;;;;;23.17;12.90;;;13.50;99.90;;;;;;4946554;28;20062;-75
2021/07/19 02:23:58;;;;;;;26.05;11.05;;;13.40;99.90;;;;;;4921603;29;20055;-75
2021/07/19 02:26:34;;;;;;;46.47;32.15;;;13.30;99.90;;;;;;4945142;28;20057;-75
2021/07/19 02:29:03;;;;;;;409.83;47.38;;;13.10;99.90;;;;;;4949223;28;20046;-75
2021/07/19 02:31:31;;;;;;;19.77;12.43;;;13.00;99.90;;;;;;4935862;29;20138;-75
2021/07/19 02:33:59;;;;;;;19.00;10.20;;;12.90;99.90;;;;;;4931258;29;20566;-74
2021/07/19 02:36:28;;;;;;;22.60;11.35;;;12.90;99.90;;;;;;4964261;28;20046;-74
2021/07/19 02:38:57;;;;;;;18.83;12.05;;;12.90;99.90;;;;;;4949363;28;20073;-74
2021/07/19 02:41:27;;;;;;;17.90;11.15;;;12.90;99.90;;;;;;4949188;28;20648;-76
2021/07/19 02:44:05;;;;;;;17.75;10.85;;;12.90;99.90;;;;;;4948722;28;20050;-75
2021/07/19 02:46:52;;;;;;;21.40;11.77;;;13.00;99.90;;;;;;4935025;28;20051;-75
2021/07/19 02:49:20;;;;;;;19.02;11.52;;;12.90;99.90;;;;;;4928188;29;20047;-75
2021/07/19 02:51:51;;;;;;;21.17;12.18;;;12.70;99.90;;;;;;4945516;28;20050;-75
2021/07/19 02:54:20;;;;;;;20.42;11.88;;;12.70;99.90;;;;;;4946295;28;20065;-75
2021/07/19 02:56:48;;;;;;;17.63;10.63;;;12.70;99.90;;;;;;4928921;28;20146;-75
2021/07/19 02:59:16;;;;;;;18.73;11.18;;;12.50;99.90;;;;;;4932581;28;20050;-75
2021/07/19 03:01:52;;;;;;;18.35;11.40;;;12.50;99.90;;;;;;4948586;28;20467;-74
2021/07/19 03:04:21;;;;;;;26.70;13.25;;;12.50;99.90;;;;;;4965107;28;20062;-75
2021/07/19 03:06:50;;;;;;;18.13;11.43;;;12.50;99.90;;;;;;4941229;28;20240;-75
2021/07/19 03:09:19;;;;;;;20.60;12.63;;;12.50;99.90;;;;;;4930301;29;20145;-75
2021/07/19 03:11:50;;;;;;;25.67;12.40;;;12.40;99.90;;;;;;4929316;28;20122;-74
2021/07/19 03:14:23;;;;;;;21.45;11.68;;;12.30;99.90;;;;;;4945225;28;20301;-75
2021/07/19 03:16:56;;;;;;;18.58;11.38;;;12.30;99.90;;;;;;4929940;28;20066;-75
2021/07/19 03:19:25;;;;;;;27.90;18.42;;;12.20;99.90;;;;;;4938550;28;20062;-77
2021/07/19 03:21:56;;;;;;;33.03;23.90;;;12.30;99.90;;;;;;4929300;29;20043;-75
2021/07/19 03:24:45;;;;;;;33.70;23.15;;;12.30;99.90;;;;;;4947900;28;20082;-77
2021/07/19 03:27:15;;;;;;;33.35;21.83;;;12.30;99.90;;;;;;4964067;28;20067;-75
2021/07/19 03:29:45;;;;;;;39.92;22.20;;;12.40;99.90;;;;;;4965353;28;20113;-74
2021/07/19 03:32:21;;;;;;;34.53;23.50;;;12.40;99.90;;;;;;4910635;29;20122;-77
2021/07/19 03:34:53;;;;;;;32.90;22.58;;;12.60;99.90;;;;;;4959324;28;20070;-77
2021/07/19 03:37:22;;;;;;;29.23;20.95;;;12.50;99.90;;;;;;4929856;28;20044;-75
2021/07/19 03:39:51;;;;;;;29.73;21.15;;;12.60;99.90;;;;;;4930329;29;20067;-75
2021/07/19 03:42:21;;;;;;;20.77;9.68;;;12.50;99.90;;;;;;4929030;29;20051;-75
2021/07/19 03:44:53;;;;;;;24.13;12.52;;;12.50;99.90;;;;;;4945685;28;20338;-77
2021/07/19 03:47:25;;;;;;;21.48;10.68;;;12.50;99.90;;;;;;4944977;28;20139;-75
2021/07/19 03:49:58;;;;;;;18.85;11.90;;;12.40;99.90;;;;;;4955187;28;20093;-75
2021/07/19 03:52:26;;;;;;;22.40;11.80;;;12.60;99.90;;;;;;4932110;28;20077;-76
2021/07/19 03:54:54;;;;;;;24.45;12.38;;;12.60;99.90;;;;;;4965039;28;20051;-76
2021/07/19 03:57:26;;;;;;;18.38;11.75;;;12.60;99.90;;;;;;4947078;28;20043;-76
2021/07/19 03:59:55;;;;;;;18.95;11.43;;;12.70;99.90;;;;;;4949741;28;20054;-77
2021/07/19 04:02:29;;;;;;;24.38;12.38;;;12.70;99.90;;;;;;4953130;28;20146;-76
2021/07/19 04:05:07;;;;;;;20.95;12.25;;;12.80;99.90;;;;;;4952458;28;20474;-76
2021/07/19 04:07:46;;;;;;;20.20;12.35;;;12.70;99.90;;;;;;4944335;29;20130;-74
2021/07/19 04:10:16;;;;;;;21.88;12.02;;;12.80;99.90;;;;;;4963462;28;20059;-75
2021/07/19 04:12:50;;;;;;;19.88;12.20;;;12.90;99.90;;;;;;4944297;28;20067;-74
2021/07/19 04:15:22;;;;;;;20.40;12.43;;;13.00;99.90;;;;;;4917080;28;20051;-75
2021/07/19 04:17:52;;;;;;;20.95;11.73;;;13.00;99.90;;;;;;4930887;29;20051;-75
2021/07/19 04:20:27;;;;;;;25.35;12.63;;;13.00;99.90;;;;;;4961966;28;20076;-76
2021/07/19 04:22:56;;;;;;;19.58;11.98;;;13.20;99.90;;;;;;4952440;28;20065;-75
2021/07/19 04:25:24;;;;;;;21.58;12.18;;;13.40;99.90;;;;;;4951283;28;20062;-75
2021/07/19 04:27:51;;;;;;;22.52;12.82;;;13.50;99.90;;;;;;4966291;28;20065;-75
2021/07/19 04:30:20;;;;;;;20.92;12.10;;;13.60;99.90;;;;;;4939095;28;20046;-76
2021/07/19 04:32:56;;;;;;;21.48;11.95;;;13.50;99.90;;;;;;4932506;29;20138;-75
2021/07/19 04:35:23;;;;;;;19.98;11.75;;;13.40;99.90;;;;;;4934097;28;20132;-75
2021/07/19 04:37:52;;;;;;;21.33;11.88;;;13.40;99.90;;;;;;4952517;28;20051;-75
2021/07/19 04:40:23;;;;;;;25.75;16.27;;;13.60;99.90;;;;;;4962064;28;20217;-75
2021/07/19 04:42:56;;;;;;;1999.90;999.90;;;13.80;99.90;;;;;;4948558;28;20088;-75
2021/07/19 04:45:24;;;;;;;1999.90;999.90;;;13.80;99.90;;;;;;4947586;28;20054;-76
2021/07/19 04:47:51;;;;;;;25.17;21.55;;;13.80;99.90;;;;;;4963368;28;20059;-75
2021/07/19 04:50:18;;;;;;;21.55;15.65;;;13.70;99.90;;;;;;4960427;28;20038;-76
2021/07/19 04:53:13;;;;;;;22.48;15.52;;;13.80;99.90;;;;;;4951530;28;20043;-75
2021/07/19 04:55:44;;;;;;;23.60;15.68;;;13.90;99.90;;;;;;4963565;28;20512;-76
2021/07/19 04:58:14;;;;;;;24.13;17.35;;;14.00;99.90;;;;;;4950886;28;20046;-76
2021/07/19 05:00:47;;;;;;;24.58;17.65;;;14.00;99.90;;;;;;4950417;28;20106;-76
2021/07/19 05:03:16;;;;;;;25.55;17.88;;;14.10;99.90;;;;;;4967636;28;20054;-75
2021/07/19 05:05:46;;;;;;;25.45;17.30;;;14.20;99.90;;;;;;4945646;28;20129;-76
2021/07/19 05:08:17;;;;;;;22.33;17.00;;;14.30;99.90;;;;;;4932775;29;20619;-76
2021/07/19 05:10:44;;;;;;;22.63;16.70;;;14.30;99.90;;;;;;4949197;28;20512;-75
2021/07/19 05:13:13;;;;;;;28.27;18.75;;;14.30;99.90;;;;;;4931462;29;20050;-76
2021/07/19 05:15:41;;;;;;;27.25;17.52;;;14.50;99.90;;;;;;4931064;28;20067;-76
2021/07/19 05:18:09;;;;;;;25.00;17.75;;;14.50;99.90;;;;;;4947521;28;20051;-76
2021/07/19 05:20:37;;;;;;;25.65;16.75;;;14.60;99.90;;;;;;4929759;29;20040;-76
2021/07/19 05:23:04;;;;;;;20.50;15.15;;;14.80;99.90;;;;;;4927221;29;20639;-77
2021/07/19 05:25:32;;;;;;;24.38;15.23;;;14.80;99.90;;;;;;4954942;28;20435;-76
2021/07/19 05:28:09;;;;;;;26.08;15.90;;;15.00;99.90;;;;;;4966502;28;20046;-76
2021/07/19 05:30:46;;;;;;;23.30;17.35;;;15.10;99.90;;;;;;4959267;28;20081;-76
2021/07/19 05:33:16;;;;;;;25.42;19.38;;;15.10;99.90;;;;;;4946978;28;20047;-76
2021/07/19 05:35:43;;;;;;;25.90;19.45;;;15.10;99.90;;;;;;4947064;28;20109;-76
2021/07/19 05:38:10;;;;;;;26.45;17.75;;;15.10;99.90;;;;;;4946922;29;20070;-75
2021/07/19 05:40:39;;;;;;;24.35;16.88;;;15.20;99.90;;;;;;4949336;28;20051;-75
2021/07/19 05:43:06;;;;;;;32.05;20.33;;;15.20;99.90;;;;;;4950102;28;20141;-75
2021/07/19 05:45:33;;;;;;;27.67;18.45;;;15.30;99.90;;;;;;4962732;28;20427;-76
2021/07/19 05:48:01;;;;;;;27.95;17.48;;;15.40;99.90;;;;;;4949246;28;20142;-76
2021/07/19 05:50:28;;;;;;;31.23;17.98;;;15.60;99.90;;;;;;4947117;28;20047;-76
2021/07/19 05:52:59;;;;;;;25.17;15.48;;;15.80;99.90;;;;;;4945131;28;20059;-77
2021/07/19 05:55:27;;;;;;;29.58;16.25;;;15.70;99.90;;;;;;4962313;28;20051;-77
2021/07/19 05:57:57;;;;;;;20.60;14.32;;;15.70;99.90;;;;;;4964368;28;20563;-77
2021/07/19 06:00:25;;;;;;;24.98;14.45;;;15.90;99.90;;;;;;4963038;28;20504;-75
2021/07/19 06:02:52;;;;;;;23.92;14.15;;;15.90;99.90;;;;;;4931454;29;20153;-76
2021/07/19 06:05:19;;;;;;;18.52;13.65;;;15.90;99.90;;;;;;4946561;28;20069;-76
2021/07/19 06:07:46;;;;;;;25.55;15.38;;;15.90;99.90;;;;;;4945935;29;20051;-76
2021/07/19 06:10:14;;;;;;;27.45;14.30;;;15.90;99.90;;;;;;4922052;28;20629;-76
2021/07/19 06:12:42;;;;;;;18.30;14.55;;;15.80;99.90;;;;;;4948058;28;20087;-80
2021/07/19 06:15:11;;;;;;;22.45;15.38;;;15.80;99.90;;;;;;4935489;28;20109;-80
2021/07/19 06:17:39;;;;;;;25.38;16.05;;;16.00;99.90;;;;;;4938401;28;20489;-80
2021/07/19 06:20:19;;;;;;;25.33;15.23;;;16.20;99.90;;;;;;4930921;29;20094;-81
2021/07/19 06:22:47;;;;;;;21.65;14.88;;;15.80;99.90;;;;;;4945218;28;20487;-82
2021/07/19 06:25:15;;;;;;;24.50;14.80;;;15.60;99.90;;;;;;4935895;28;20109;-82
2021/07/19 06:27:43;;;;;;;21.08;14.77;;;15.80;99.90;;;;;;4949821;28;20077;-80
2021/07/19 06:30:12;;;;;;;26.20;16.13;;;15.90;99.90;;;;;;4940412;28;20512;-81
2021/07/19 06:32:40;;;;;;;24.48;15.82;;;16.20;99.90;;;;;;4939424;28;20456;-84
2021/07/19 06:35:08;;;;;;;21.35;12.68;;;16.30;99.90;;;;;;4931903;28;20749;-82
2021/07/19 06:37:35;;;;;;;20.65;14.45;;;16.30;99.90;;;;;;4947637;28;20051;-82
2021/07/19 06:40:04;;;;;;;21.27;14.65;;;16.40;99.90;;;;;;4913462;29;20062;-82
2021/07/19 06:42:31;;;;;;;18.35;13.35;;;16.50;99.90;;;;;;4930179;28;20048;-78
2021/07/19 06:45:07;;;;;;;15.77;14.05;;;16.50;99.90;;;;;;4912825;29;20476;-81
2021/07/19 06:47:34;;;;;;;19.42;12.82;;;16.50;99.90;;;;;;4930347;29;20057;-80
2021/07/19 06:50:03;;;;;;;16.17;12.35;;;16.30;99.90;;;;;;4927982;29;20281;-82
2021/07/19 06:52:29;;;;;;;17.70;12.85;;;16.30;99.90;;;;;;4927080;29;20129;-82
2021/07/19 06:54:56;;;;;;;14.80;13.23;;;16.40;99.90;;;;;;4950650;28;20057;-81
2021/07/19 06:57:23;;;;;;;14.00;12.63;;;16.60;99.90;;;;;;4964408;28;20582;-83
2021/07/19 06:59:51;;;;;;;15.38;13.70;;;16.80;99.90;;;;;;4951229;28;20047;-81
2021/07/19 07:02:18;;;;;;;17.15;12.00;;;17.20;99.90;;;;;;4966748;28;20070;-81
2021/07/19 07:04:46;;;;;;;15.48;12.25;;;17.00;99.90;;;;;;4967012;28;20092;-82
2021/07/19 07:07:13;;;;;;;20.65;12.95;;;16.50;99.90;;;;;;4929841;29;20050;-81
2021/07/19 07:09:40;;;;;;;19.63;12.65;;;16.60;99.90;;;;;;4947660;28;20131;-80
2021/07/19 07:12:22;;;;;;;16.08;11.55;;;16.90;99.90;;;;;;4930953;29;20127;-79
2021/07/19 07:14:49;;;;;;;15.63;12.00;;;16.90;99.90;;;;;;4931893;29;20141;-81
2021/07/19 07:17:16;;;;;;;17.23;11.98;;;16.90;99.90;;;;;;4937158;28;20135;-80
2021/07/19 07:19:47;;;;;;;15.15;12.75;;;16.90;99.90;;;;;;4935741;29;20472;-80
2021/07/19 07:22:14;;;;;;;18.17;14.07;;;16.90;99.90;;;;;;4930271;29;20484;-81
2021/07/19 07:24:41;;;;;;;16.75;14.02;;;16.80;99.90;;;;;;4931862;28;20459;-80
2021/07/19 07:27:12;;;;;;;15.10;13.32;;;16.70;99.90;;;;;;4933876;28;20567;-81
2021/07/19 07:29:39;;;;;;;17.15;14.35;;;16.80;99.90;;;;;;4948662;28;20710;-84
2021/07/19 07:32:07;;;;;;;22.00;13.18;;;16.90;99.90;;;;;;4948296;28;20147;-82
2021/07/19 07:34:36;;;;;;;305.92;47.13;;;16.90;99.90;;;;;;4948039;28;20488;-81
2021/07/19 07:37:03;;;;;;;21.35;13.60;;;17.00;99.90;;;;;;4947055;28;20400;-81
2021/07/19 07:39:30;;;;;;;776.38;95.28;;;17.00;99.90;;;;;;4932103;28;20078;-80
2021/07/19 07:41:57;;;;;;;50.83;47.33;;;16.90;99.90;;;;;;4930760;29;20334;-80
2021/07/19 07:44:25;;;;;;;19.45;14.05;;;16.70;99.90;;;;;;4930992;29;20063;-81
2021/07/19 07:46:52;;;;;;;18.90;14.55;;;16.70;99.90;;;;;;4946220;28;20058;-81
2021/07/19 07:49:21;;;;;;;16.02;13.07;;;16.80;99.90;;;;;;4943778;28;20076;-81
2021/07/19 07:51:48;;;;;;;17.27;13.88;;;17.30;99.90;;;;;;4929947;29;20055;-80
2021/07/19 07:54:16;;;;;;;15.45;13.45;;;17.50;99.90;;;;;;4931368;28;20063;-80
2021/07/19 07:56:43;;;;;;;16.60;14.60;;;18.00;99.90;;;;;;4942678;28;20515;-80
2021/07/19 07:59:25;;;;;;;15.68;14.00;;;18.40;99.90;;;;;;4959368;28;20055;-81
2021/07/19 08:01:52;;;;;;;14.45;13.00;;;18.70;99.90;;;;;;4945280;28;20039;-80
2021/07/19 08:04:19;;;;;;;20.58;13.30;;;19.10;99.90;;;;;;4942012;28;20043;-80
2021/07/19 08:06:46;;;;;;;16.02;14.43;;;19.30;99.90;;;;;;4943127;28;20055;-80
2021/07/19 08:09:13;;;;;;;15.32;13.75;;;19.00;99.90;;;;;;4915786;29;20146;-81
2021/07/19 08:11:42;;;;;;;15.73;13.85;;;18.80;99.90;;;;;;4930781;29;20074;-80
2021/07/19 08:14:09;;;;;;;17.17;14.93;;;18.80;99.90;;;;;;4947345;28;20662;-79
2021/07/19 08:16:37;;;;;;;16.70;14.90;;;18.90;99.90;;;;;;4938957;28;20047;-80
2021/07/19 08:19:05;;;;;;;16.42;14.82;;;19.10;99.90;;;;;;4939797;29;20055;-82
2021/07/19 08:21:34;;;;;;;236.30;36.60;;;19.30;99.90;;;;;;4946420;28;20059;-82
2021/07/19 08:24:02;;;;;;;16.42;13.68;;;19.30;99.90;;;;;;4930909;28;20115;-85
2021/07/19 08:26:29;;;;;;;14.98;13.55;;;19.50;99.90;;;;;;4945066;28;20306;-82
2021/07/19 08:28:57;;;;;;;16.02;14.50;;;19.90;99.90;;;;;;4948706;28;20047;-83
2021/07/19 08:31:26;;;;;;;15.27;13.45;;;20.20;99.90;;;;;;4949685;28;20081;-81
2021/07/19 08:33:54;;;;;;;15.85;14.20;;;20.20;99.90;;;;;;4965353;28;20039;-84
2021/07/19 08:36:21;;;;;;;16.30;15.10;;;19.80;99.90;;;;;;4949604;28;20050;-81
2021/07/19 08:38:49;;;;;;;17.05;15.13;;;19.50;99.90;;;;;;4960045;28;20535;-82
2021/07/19 08:41:16;;;;;;;16.08;14.25;;;19.60;99.90;;;;;;4960300;28;20066;-81
2021/07/19 08:43:44;;;;;;;17.60;15.57;;;20.00;99.90;;;;;;4941676;29;20071;-83
2021/07/19 08:46:12;;;;;;;18.30;15.60;;;20.50;99.90;;;;;;4928416;28;20078;-82
2021/07/19 08:48:39;;;;;;;16.60;15.15;;;20.40;99.90;;;;;;4933699;29;20127;-82
2021/07/19 08:51:06;;;;;;;16.67;15.25;;;20.60;99.90;;;;;;4950171;28;20063;-81
2021/07/19 08:53:36;;;;;;;14.93;13.65;;;20.80;99.90;;;;;;4936588;28;20186;-80
2021/07/19 08:56:07;;;;;;;16.80;15.23;;;21.20;99.90;;;;;;4968030;28;20102;-80
2021/07/19 08:58:35;;;;;;;15.60;14.10;;;20.40;99.90;;;;;;4955931;28;20126;-79
2021/07/19 09:01:02;;;;;;;15.63;14.00;;;20.30;99.90;;;;;;4972322;28;20043;-79
2021/07/19 09:03:30;;;;;;;16.35;14.70;;;20.20;99.90;;;;;;4968754;28;20047;-79
2021/07/19 09:05:58;;;;;;;15.10;13.65;;;20.10;99.90;;;;;;4951003;28;20078;-78
2021/07/19 09:08:25;;;;;;;21.85;14.70;;;20.20;99.90;;;;;;4949942;29;20047;-84
2021/07/19 09:10:53;;;;;;;15.45;13.93;;;20.50;99.90;;;;;;4933022;29;20078;-80
2021/07/19 09:13:22;;;;;;;16.55;14.85;;;20.30;99.90;;;;;;4928545;29;20653;-81
2021/07/19 09:15:58;;;;;;;16.27;14.52;;;20.10;99.90;;;;;;4939703;28;20464;-81
2021/07/19 09:18:26;;;;;;;14.27;13.18;;;20.30;99.90;;;;;;4963516;28;20415;-81
2021/07/19 09:20:53;;;;;;;16.30;14.88;;;20.60;99.90;;;;;;4931988;29;20143;-79
2021/07/19 09:23:30;;;;;;;17.00;13.77;;;20.20;99.90;;;;;;4949912;29;20059;-81
2021/07/19 09:26:08;;;;;;;14.55;13.27;;;20.30;99.90;;;;;;4942484;28;20050;-80
2021/07/19 09:28:35;;;;;;;16.33;14.15;;;20.70;99.90;;;;;;4948593;28;20047;-80
2021/07/19 09:31:08;;;;;;;15.90;14.60;;;20.70;99.90;;;;;;4932110;29;20224;-83
2021/07/19 09:33:35;;;;;;;15.95;14.55;;;21.10;99.90;;;;;;4948270;28;20556;-82
2021/07/19 09:36:04;;;;;;;16.63;15.00;;;21.50;99.90;;;;;;4938287;28;20071;-80
2021/07/19 09:38:31;;;;;;;18.05;15.80;;;21.90;99.90;;;;;;4945832;28;20047;-81
2021/07/19 09:41:01;;;;;;;22.08;14.90;;;21.40;99.90;;;;;;4949708;28;20508;-81
2021/07/19 09:43:32;;;;;;;15.55;14.15;;;21.50;99.90;;;;;;4950758;29;20059;-81
2021/07/19 09:46:00;;;;;;;15.02;13.57;;;21.50;99.90;;;;;;4960319;28;20140;-80
2021/07/19 09:48:28;;;;;;;15.20;13.85;;;21.30;99.90;;;;;;4954433;28;20673;-82
2021/07/19 09:50:56;;;;;;;16.15;14.85;;;21.00;99.90;;;;;;4946069;28;20142;-81
2021/07/19 09:53:32;;;;;;;15.73;14.32;;;20.70;99.90;;;;;;4932179;29;20211;-81
2021/07/19 09:56:12;;;;;;;16.15;14.50;;;21.10;99.90;;;;;;4923639;28;20129;-83
2021/07/19 09:58:43;;;;;;;15.48;14.18;;;21.80;99.90;;;;;;4964632;28;20134;-81
2021/07/19 10:01:10;;;;;;;15.55;14.05;;;21.80;99.90;;;;;;4931909;28;20055;-79
2021/07/19 10:03:38;;;;;;;16.50;14.93;;;21.80;99.90;;;;;;4948343;28;20047;-82
2021/07/19 10:06:07;;;;;;;17.02;14.60;;;20.90;99.90;;;;;;4932650;28;20054;-81
2021/07/19 10:08:34;;;;;;;17.92;16.23;;;20.60;99.90;;;;;;4944469;28;20047;-84
2021/07/19 10:11:13;;;;;;;18.73;17.08;;;20.60;99.90;;;;;;4947059;28;20443;-85
2021/07/19 10:13:56;;;;;;;18.70;16.67;;;20.90;99.90;;;;;;4913107;29;20677;-86
2021/07/19 10:16:52;;;;;;;15.55;14.30;;;21.70;99.90;;;;;;4906972;28;20804;-83
2021/07/19 10:19:20;;;;;;;27.40;15.80;;;22.50;99.90;;;;;;4933058;29;20051;-82
2021/07/19 10:21:47;;;;;;;52.10;16.25;;;22.10;99.90;;;;;;4949271;28;20612;-82
2021/07/19 10:24:14;;;;;;;42.85;16.70;;;21.40;99.90;;;;;;4931751;28;20057;-84
2021/07/19 10:26:41;;;;;;;19.38;17.67;;;21.00;99.90;;;;;;4946710;28;20112;-83
2021/07/19 10:29:08;;;;;;;18.02;16.55;;;20.80;99.90;;;;;;4951864;28;20085;-83
2021/07/19 10:31:37;;;;;;;17.55;15.85;;;20.90;99.90;;;;;;4966763;28;20046;-83
2021/07/19 10:34:05;;;;;;;16.00;14.55;;;21.30;99.90;;;;;;4945206;28;20047;-83
2021/07/19 10:36:48;;;;;;;15.68;14.32;;;21.60;99.90;;;;;;4951166;28;20401;-82
2021/07/19 10:39:23;;;;;;;17.63;16.13;;;21.80;99.90;;;;;;4951891;28;20051;-82
2021/07/19 10:42:01;;;;;;;19.20;17.17;;;21.80;99.90;;;;;;4950555;28;20055;-83
2021/07/19 10:44:34;;;;;;;18.80;17.13;;;21.50;99.90;;;;;;4946414;29;20039;-82
2021/07/19 10:47:26;;;;;;;17.60;15.98;;;21.40;99.90;;;;;;4931058;28;20589;-83
2021/07/19 10:49:57;;;;;;;17.35;15.73;;;21.00;99.90;;;;;;4947553;28;20066;-82
2021/07/19 10:52:39;;;;;;;18.83;16.58;;;20.90;99.90;;;;;;4929737;29;20098;-83
2021/07/19 10:55:08;;;;;;;17.13;15.48;;;21.00;99.90;;;;;;4937698;28;20039;-83
2021/07/19 10:57:40;;;;;;;17.17;15.45;;;20.70;99.90;;;;;;4950306;28;20057;-82
2021/07/19 11:00:19;;;;;;;19.33;15.80;;;21.00;99.90;;;;;;4950146;28;20054;-82
2021/07/19 11:02:47;;;;;;;800.13;88.72;;;21.10;99.90;;;;;;4950794;28;20059;-84
2021/07/19 11:05:18;;;;;;;19.83;16.20;;;20.90;99.90;;;;;;4966105;28;20047;-82
2021/07/19 11:07:45;;;;;;;17.35;15.75;;;20.90;99.90;;;;;;4949367;28;20142;-82
2021/07/19 11:10:21;;;;;;;17.65;15.85;;;20.70;99.90;;;;;;4949568;28;20503;-84
2021/07/19 11:12:52;;;;;;;17.38;15.57;;;20.70;99.90;;;;;;4950354;28;20154;-82
2021/07/19 11:15:21;;;;;;;17.00;14.98;;;20.70;99.90;;;;;;4964746;28;20090;-82
2021/07/19 11:17:49;;;;;;;16.92;15.43;;;20.70;99.90;;;;;;4929444;29;20071;-84
2021/07/19 11:20:17;;;;;;;19.50;16.17;;;20.70;99.90;;;;;;4946712;28;20142;-82
2021/07/19 11:22:44;;;;;;;17.13;15.40;;;20.80;99.90;;;;;;4931298;29;20181;-83
2021/07/19 11:25:15;;;;;;;16.85;14.68;;;20.60;99.90;;;;;;4950935;28;20047;-83
2021/07/19 11:27:44;;;;;;;17.48;15.88;;;20.70;99.90;;;;;;4930572;28;20157;-83
2021/07/19 11:30:19;;;;;;;16.73;15.05;;;20.70;99.90;;;;;;4965725;28;20086;-81
2021/07/19 11:32:46;;;;;;;20.20;16.13;;;20.60;99.90;;;;;;4950541;28;20061;-83
2021/07/19 11:35:19;;;;;;;18.38;16.45;;;20.60;99.90;;;;;;4946689;28;20404;-81
2021/07/19 11:37:49;;;;;;;20.65;16.35;;;20.60;99.90;;;;;;4944839;28;20134;-78
2021/07/19 11:40:31;;;;;;;17.83;15.95;;;20.50;99.90;;;;;;4966019;28;20047;-78
2021/07/19 11:43:19;;;;;;;17.10;15.60;;;20.20;99.90;;;;;;4946506;28;20086;-78
2021/07/19 11:45:53;;;;;;;19.30;16.02;;;20.10;99.90;;;;;;4929858;29;20142;-79
2021/07/19 11:48:23;;;;;;;18.63;15.40;;;20.10;99.90;;;;;;4947068;28;20047;-77
2021/07/19 11:50:58;;;;;;;17.98;16.15;;;20.10;99.90;;;;;;4939205;28;20137;-81
2021/07/19 11:53:25;;;;;;;144.05;35.60;;;20.00;99.90;;;;;;4951404;28;20114;-80
2021/07/19 11:55:52;;;;;;;18.42;15.88;;;20.10;99.90;;;;;;4944091;28;20074;-83
2021/07/19 11:58:18;;;;;;;20.55;14.85;;;20.10;99.90;;;;;;4950054;28;20539;-80
2021/07/19 12:00:46;;;;;;;17.27;15.57;;;20.10;99.90;;;;;;4949311;28;20051;-81
2021/07/19 12:03:15;;;;;;;17.77;15.98;;;20.30;99.90;;;;;;4951326;28;20045;-83
2021/07/19 12:05:53;;;;;;;17.80;16.08;;;20.30;99.90;;;;;;4966200;28;20096;-83
2021/07/19 12:08:29;;;;;;;17.95;16.05;;;20.10;99.90;;;;;;4955471;28;20549;-82
2021/07/19 12:11:05;;;;;;;21.27;16.02;;;20.40;99.90;;;;;;4915639;29;20059;-83
2021/07/19 12:13:38;;;;;;;20.48;16.55;;;20.40;99.90;;;;;;4929739;28;20081;-80
2021/07/19 12:16:05;;;;;;;20.55;16.77;;;20.50;99.90;;;;;;4931514;29;20094;-81
2021/07/19 12:18:38;;;;;;;19.63;16.20;;;20.60;99.90;;;;;;4931178;29;20047;-83
2021/07/19 12:21:31;;;;;;;17.33;15.52;;;20.50;99.90;;;;;;4930765;29;20070;-81
2021/07/19 12:23:59;;;;;;;16.48;14.60;;;20.50;99.90;;;;;;4934310;28;20492;-82
2021/07/19 12:26:32;;;;;;;16.70;14.75;;;20.50;99.90;;;;;;4948505;28;20422;-83
2021/07/19 12:29:02;;;;;;;17.30;14.90;;;20.50;99.90;;;;;;4952171;28;20059;-82
2021/07/19 12:31:37;;;;;;;20.23;15.77;;;20.50;99.90;;;;;;4953904;28;20054;-82
2021/07/19 12:34:09;;;;;;;17.45;15.60;;;20.40;99.90;;;;;;4943313;28;20051;-81
2021/07/19 12:36:37;;;;;;;18.25;16.58;;;20.40;99.90;;;;;;4933988;29;20051;-80
2021/07/19 12:39:15;;;;;;;17.85;15.98;;;20.40;99.90;;;;;;4936016;28;20057;-80
2021/07/19 12:41:43;;;;;;;20.60;16.13;;;20.30;99.90;;;;;;4951457;28;20150;-81
2021/07/19 12:44:11;;;;;;;19.88;17.20;;;20.00;99.90;;;;;;4940115;29;20077;-81